Time;durP1;ratioP1;P1;durP2;ratioP2;P2;SDS_P1;SDS_P2;PMS_P1;PMS_P2;Temp;Humidity;BMP_temperature;BMP_pressure;BME280_temperature;BME280_humidity;BME280_pressure;Samples;Min_cycle;Max_cycle;Signal;HPM_P1;HPM_P2
2023/04/19 00:00:07;;;;;;;10.20;8.18;;;;;;;;;;5056685;28;20474;-59
2023/04/19 00:02:33;;;;;;;10.20;6.95;;;;;;;;;;5056332;28;20347;-59
2023/04/19 00:05:00;;;;;;;11.23;8.35;;;;;;;;;;5055958;28;20459;-59
2023/04/19 00:07:26;;;;;;;9.65;6.93;;;;;;;;;;5056952;28;20103;-59
2023/04/19 00:09:52;;;;;;;9.65;7.38;;;;;;;;;;5056480;28;20033;-59
2023/04/19 00:12:18;;;;;;;8.50;6.47;;;;;;;;;;5056733;28;20040;-59
2023/04/19 00:14:44;;;;;;;7.53;6.65;;;;;;;;;;5056424;28;20041;-59
2023/04/19 00:17:11;;;;;;;10.05;7.63;;;;;;;;;;5056326;28;20162;-59
2023/04/19 00:19:37;;;;;;;9.82;8.80;;;;;;;;;;5056855;28;20486;-59
2023/04/19 00:22:03;;;;;;;10.07;7.65;;;;;;;;;;5056313;28;20029;-59
2023/04/19 00:24:29;;;;;;;9.82;8.05;;;;;;;;;;5056244;28;20399;-59
2023/04/19 00:26:56;;;;;;;8.07;7.03;;;;;;;;;;5056222;28;20025;-59
2023/04/19 00:29:22;;;;;;;8.98;7.43;;;;;;;;;;5055804;28;20361;-58
2023/04/19 00:31:48;;;;;;;12.25;7.95;;;;;;;;;;5055830;28;20107;-59
2023/04/19 00:34:14;;;;;;;12.07;8.10;;;;;;;;;;5055006;28;20031;-58
2023/04/19 00:36:39;;;;;;;11.05;7.22;;;;;;;;;;5055986;28;20029;-58
2023/04/19 00:39:06;;;;;;;13.27;7.38;;;;;;;;;;5056430;28;20116;-58
2023/04/19 00:41:32;;;;;;;10.57;8.70;;;;;;;;;;5055570;28;20467;-60
2023/04/19 00:43:58;;;;;;;11.05;8.57;;;;;;;;;;5055545;28;20083;-58
2023/04/19 00:46:24;;;;;;;13.65;9.15;;;;;;;;;;5055847;28;20104;-60
2023/04/19 00:48:50;;;;;;;10.38;7.90;;;;;;;;;;5055528;28;20110;-59
2023/04/19 00:51:17;;;;;;;8.23;6.88;;;;;;;;;;5055933;28;20436;-59
2023/04/19 00:53:42;;;;;;;10.68;8.95;;;;;;;;;;5055675;28;20025;-59
2023/04/19 00:56:09;;;;;;;9.23;7.47;;;;;;;;;;5055373;28;20029;-59
2023/04/19 00:58:37;;;;;;;12.50;8.88;;;;;;;;;;5055244;28;20032;-59
2023/04/19 01:01:03;;;;;;;7.75;6.20;;;;;;;;;;5055298;28;20104;-59
2023/04/19 01:03:29;;;;;;;12.10;8.45;;;;;;;;;;5055818;28;20033;-59
2023/04/19 01:05:55;;;;;;;11.40;8.90;;;;;;;;;;5055767;28;20371;-59
2023/04/19 01:08:22;;;;;;;12.45;8.07;;;;;;;;;;5055203;28;20048;-59
2023/04/19 01:10:48;;;;;;;9.68;7.18;;;;;;;;;;5055651;28;20036;-59
2023/04/19 01:13:13;;;;;;;10.32;8.30;;;;;;;;;;5055141;28;20403;-59
2023/04/19 01:15:39;;;;;;;10.73;8.30;;;;;;;;;;5055428;28;20041;-59
2023/04/19 01:18:06;;;;;;;9.88;7.65;;;;;;;;;;5054968;28;20040;-59
2023/04/19 01:20:32;;;;;;;8.75;7.80;;;;;;;;;;5054905;28;20033;-59
2023/04/19 01:22:57;;;;;;;13.65;9.05;;;;;;;;;;5055211;28;20079;-59
2023/04/19 01:25:23;;;;;;;12.60;8.90;;;;;;;;;;5055172;28;20017;-59
2023/04/19 01:27:49;;;;;;;12.18;8.85;;;;;;;;;;5054879;28;20029;-59
2023/04/19 01:30:15;;;;;;;10.57;8.10;;;;;;;;;;5054969;28;20114;-59
2023/04/19 01:32:41;;;;;;;9.98;7.43;;;;;;;;;;5054703;28;20033;-59
2023/04/19 01:35:10;;;;;;;11.82;8.38;;;;;;;;;;5054388;28;20104;-59
2023/04/19 01:37:36;;;;;;;12.38;8.50;;;;;;;;;;5054508;28;20036;-59
2023/04/19 01:40:04;;;;;;;8.18;6.82;;;;;;;;;;5054836;28;20037;-59
2023/04/19 01:42:30;;;;;;;13.00;8.40;;;;;;;;;;5054447;28;20435;-59
2023/04/19 01:44:56;;;;;;;8.77;7.75;;;;;;;;;;5054715;28;20039;-59
2023/04/19 01:47:22;;;;;;;9.93;7.75;;;;;;;;;;5055019;28;20098;-59
2023/04/19 01:49:47;;;;;;;11.02;8.05;;;;;;;;;;5054744;28;20044;-59
2023/04/19 01:52:13;;;;;;;11.07;7.78;;;;;;;;;;5054628;28;20025;-59
2023/04/19 01:54:39;;;;;;;9.43;7.57;;;;;;;;;;5054885;28;20017;-59
2023/04/19 01:57:05;;;;;;;12.35;8.15;;;;;;;;;;5054220;28;20163;-59
2023/04/19 01:59:31;;;;;;;10.13;8.10;;;;;;;;;;5052927;28;20033;-59
2023/04/19 02:01:57;;;;;;;10.43;8.00;;;;;;;;;;5054502;28;20035;-59
2023/04/19 02:04:23;;;;;;;11.15;7.25;;;;;;;;;;5054395;28;20033;-59
2023/04/19 02:06:49;;;;;;;9.18;7.22;;;;;;;;;;5054336;28;20029;-59
2023/04/19 02:09:15;;;;;;;12.15;8.50;;;;;;;;;;5054063;28;20439;-59
2023/04/19 02:11:41;;;;;;;10.13;8.30;;;;;;;;;;5054033;28;20112;-59
2023/04/19 02:14:07;;;;;;;12.50;9.52;;;;;;;;;;5053997;28;20093;-59
2023/04/19 02:16:33;;;;;;;12.50;9.20;;;;;;;;;;5053982;28;20470;-59
2023/04/19 02:18:59;;;;;;;12.10;8.82;;;;;;;;;;5053891;28;20451;-59
2023/04/19 02:21:25;;;;;;;8.73;6.95;;;;;;;;;;5054184;28;20422;-59
2023/04/19 02:23:51;;;;;;;10.10;7.75;;;;;;;;;;5053922;28;20421;-59
2023/04/19 02:26:17;;;;;;;10.65;7.57;;;;;;;;;;5054228;28;20095;-59
2023/04/19 02:28:43;;;;;;;9.48;8.25;;;;;;;;;;5053466;28;20485;-59
2023/04/19 02:31:09;;;;;;;13.88;8.90;;;;;;;;;;5054053;28;20017;-59
2023/04/19 02:33:35;;;;;;;11.35;8.02;;;;;;;;;;5053724;28;20021;-59
2023/04/19 02:36:01;;;;;;;9.50;7.25;;;;;;;;;;5054104;28;20086;-59
2023/04/19 02:38:27;;;;;;;12.63;8.52;;;;;;;;;;5054115;28;20037;-59
2023/04/19 02:40:53;;;;;;;11.85;8.63;;;;;;;;;;5053382;28;20467;-59
2023/04/19 02:43:19;;;;;;;11.15;8.63;;;;;;;;;;5053681;28;20021;-59
2023/04/19 02:45:45;;;;;;;10.05;8.43;;;;;;;;;;5053664;28;20397;-59
2023/04/19 02:48:11;;;;;;;10.80;7.72;;;;;;;;;;5053872;28;20120;-59
2023/04/19 02:50:37;;;;;;;9.98;8.50;;;;;;;;;;5053516;28;20032;-59
2023/04/19 02:53:03;;;;;;;14.93;10.00;;;;;;;;;;5053570;28;20055;-59
2023/04/19 02:55:29;;;;;;;11.57;8.70;;;;;;;;;;5054093;28;20059;-59
2023/04/19 02:57:55;;;;;;;12.32;8.93;;;;;;;;;;5056258;28;20032;-59
2023/04/19 03:00:21;;;;;;;12.15;8.65;;;;;;;;;;5057657;28;20029;-59
2023/04/19 03:02:47;;;;;;;12.07;8.00;;;;;;;;;;5057594;28;20025;-59
2023/04/19 03:05:13;;;;;;;12.40;9.50;;;;;;;;;;5057579;28;20500;-59
2023/04/19 03:07:39;;;;;;;12.10;8.13;;;;;;;;;;5057523;28;20422;-59
2023/04/19 03:10:05;;;;;;;9.25;8.27;;;;;;;;;;5057882;28;20033;-59
2023/04/19 03:12:31;;;;;;;10.57;8.52;;;;;;;;;;5057413;28;20029;-59
2023/04/19 03:14:57;;;;;;;9.75;8.75;;;;;;;;;;5057340;28;20135;-59
2023/04/19 03:17:23;;;;;;;11.63;9.02;;;;;;;;;;5057524;28;20470;-59
2023/04/19 03:19:49;;;;;;;11.82;9.00;;;;;;;;;;5058113;28;20075;-59
2023/04/19 03:22:15;;;;;;;13.68;8.95;;;;;;;;;;5057170;28;20039;-59
2023/04/19 03:24:41;;;;;;;10.98;8.07;;;;;;;;;;5057525;28;20382;-59
2023/04/19 03:27:07;;;;;;;9.98;8.52;;;;;;;;;;5057446;28;20383;-59
2023/04/19 03:29:33;;;;;;;8.32;7.47;;;;;;;;;;5057174;28;20024;-59
2023/04/19 03:32:00;;;;;;;12.68;9.98;;;;;;;;;;5057351;28;20021;-59
2023/04/19 03:34:25;;;;;;;9.65;8.27;;;;;;;;;;5057170;28;20074;-59
2023/04/19 03:36:51;;;;;;;11.02;7.78;;;;;;;;;;5056745;28;20028;-59
2023/04/19 03:39:17;;;;;;;12.25;9.35;;;;;;;;;;5056741;28;20036;-59
2023/04/19 03:41:43;;;;;;;12.38;9.10;;;;;;;;;;5057367;28;20021;-59
2023/04/19 03:44:09;;;;;;;9.48;8.10;;;;;;;;;;5056901;28;20032;-59
2023/04/19 03:46:35;;;;;;;13.40;8.80;;;;;;;;;;5057695;28;20025;-59
2023/04/19 03:49:01;;;;;;;10.63;8.73;;;;;;;;;;5056893;28;20050;-59
2023/04/19 03:51:27;;;;;;;12.60;8.65;;;;;;;;;;5057326;28;20025;-59
2023/04/19 03:53:53;;;;;;;11.88;9.13;;;;;;;;;;5056989;28;20040;-59
2023/04/19 03:56:19;;;;;;;13.50;10.43;;;;;;;;;;5056840;28;20394;-59
2023/04/19 03:58:45;;;;;;;11.18;9.18;;;;;;;;;;5056883;28;20113;-59
2023/04/19 04:01:21;;;;;;;11.05;8.75;;;;;;;;;;5056957;28;20493;-59
2023/04/19 04:03:47;;;;;;;12.25;9.00;;;;;;;;;;5057111;28;20025;-59
2023/04/19 04:06:13;;;;;;;10.40;8.55;;;;;;;;;;5056863;28;20096;-59
2023/04/19 04:08:39;;;;;;;13.52;8.73;;;;;;;;;;5056994;28;20052;-59
2023/04/19 04:11:05;;;;;;;16.08;9.23;;;;;;;;;;5056946;28;20017;-59
2023/04/19 04:13:31;;;;;;;14.43;10.32;;;;;;;;;;5056433;28;20033;-59
2023/04/19 04:15:57;;;;;;;11.75;9.18;;;;;;;;;;5057283;28;20045;-59
2023/04/19 04:18:23;;;;;;;14.13;10.50;;;;;;;;;;5056236;28;20065;-59
2023/04/19 04:20:49;;;;;;;11.20;9.13;;;;;;;;;;5056729;28;20028;-59
2023/04/19 04:23:15;;;;;;;12.30;10.35;;;;;;;;;;5056247;28;20348;-59
2023/04/19 04:25:41;;;;;;;15.68;11.05;;;;;;;;;;5056980;28;20029;-59
2023/04/19 04:28:07;;;;;;;15.13;11.65;;;;;;;;;;5056641;28;20037;-59
2023/04/19 04:30:33;;;;;;;10.98;9.35;;;;;;;;;;5056319;28;20414;-59
2023/04/19 04:32:59;;;;;;;15.82;12.10;;;;;;;;;;5056814;28;20029;-59
2023/04/19 04:35:26;;;;;;;13.10;9.55;;;;;;;;;;5056081;28;20365;-59
2023/04/19 04:37:52;;;;;;;12.52;10.32;;;;;;;;;;5056415;28;20111;-59
2023/04/19 04:40:19;;;;;;;13.15;10.32;;;;;;;;;;5055860;28;20440;-59
2023/04/19 04:42:45;;;;;;;12.55;10.32;;;;;;;;;;5056019;28;20043;-59
2023/04/19 04:45:11;;;;;;;10.77;9.27;;;;;;;;;;5055438;28;20111;-59
2023/04/19 04:47:37;;;;;;;10.85;9.35;;;;;;;;;;5055884;28;20029;-59
2023/04/19 04:50:04;;;;;;;14.00;10.77;;;;;;;;;;5055643;28;20033;-59
2023/04/19 04:52:30;;;;;;;14.10;10.80;;;;;;;;;;5055603;28;20050;-60
2023/04/19 04:54:56;;;;;;;13.43;10.93;;;;;;;;;;5055657;28;20118;-59
2023/04/19 04:57:22;;;;;;;13.35;10.95;;;;;;;;;;5055889;28;20064;-59
2023/04/19 04:59:48;;;;;;;15.52;10.13;;;;;;;;;;5055774;28;20033;-59
2023/04/19 05:02:14;;;;;;;13.68;11.15;;;;;;;;;;5055447;28;20061;-59
2023/04/19 05:04:40;;;;;;;16.10;10.52;;;;;;;;;;5055239;28;20055;-59
2023/04/19 05:07:06;;;;;;;9.85;8.48;;;;;;;;;;5056217;28;20116;-59
2023/04/19 05:09:32;;;;;;;14.95;10.95;;;;;;;;;;5055670;28;20462;-59
2023/04/19 05:11:58;;;;;;;12.95;11.45;;;;;;;;;;5053965;28;20029;-59
2023/04/19 05:14:24;;;;;;;13.52;9.27;;;;;;;;;;5054809;28;20068;-59
2023/04/19 05:16:50;;;;;;;14.48;10.43;;;;;;;;;;5054959;28;20017;-59
2023/04/19 05:19:16;;;;;;;11.60;9.63;;;;;;;;;;5054979;28;20529;-59
2023/04/19 05:21:42;;;;;;;13.20;10.30;;;;;;;;;;5055542;28;20028;-59
2023/04/19 05:24:08;;;;;;;12.07;9.75;;;;;;;;;;5055067;28;20463;-59
2023/04/19 05:26:34;;;;;;;14.25;10.90;;;;;;;;;;5055038;28;20082;-59
2023/04/19 05:29:00;;;;;;;12.00;10.02;;;;;;;;;;5055000;28;20108;-59
2023/04/19 05:31:26;;;;;;;11.68;9.82;;;;;;;;;;5054948;28;20367;-59
2023/04/19 05:33:52;;;;;;;13.52;9.90;;;;;;;;;;5054882;28;20029;-59
2023/04/19 05:36:18;;;;;;;13.65;10.73;;;;;;;;;;5055190;28;20106;-59
2023/04/19 05:38:44;;;;;;;11.82;10.32;;;;;;;;;;5054667;28;20037;-59
2023/04/19 05:41:10;;;;;;;20.60;11.60;;;;;;;;;;5054675;28;20061;-59
2023/04/19 05:43:36;;;;;;;14.38;10.88;;;;;;;;;;5055013;28;20032;-59
2023/04/19 05:46:02;;;;;;;10.98;8.68;;;;;;;;;;5054710;28;20371;-59
2023/04/19 05:48:29;;;;;;;12.85;10.85;;;;;;;;;;5055283;28;20029;-58
2023/04/19 05:50:56;;;;;;;14.18;9.43;;;;;;;;;;5054432;28;20206;-58
2023/04/19 05:53:22;;;;;;;13.18;10.18;;;;;;;;;;5054410;28;20505;-58
2023/04/19 05:55:50;;;;;;;11.38;10.18;;;;;;;;;;5054809;28;20032;-58
2023/04/19 05:58:16;;;;;;;12.48;8.95;;;;;;;;;;5054092;28;20119;-58
2023/04/19 06:00:42;;;;;;;14.98;10.82;;;;;;;;;;5054575;28;20036;-58
2023/04/19 06:03:08;;;;;;;12.60;10.13;;;;;;;;;;5054331;28;20370;-58
2023/04/19 06:05:34;;;;;;;10.80;8.73;;;;;;;;;;5054794;28;20021;-58
2023/04/19 06:08:00;;;;;;;12.77;9.23;;;;;;;;;;5054397;28;20052;-58
2023/04/19 06:10:26;;;;;;;13.88;10.27;;;;;;;;;;5053792;28;20024;-58
2023/04/19 06:12:52;;;;;;;10.98;9.40;;;;;;;;;;5053836;28;20051;-57
2023/04/19 06:15:18;;;;;;;13.88;9.45;;;;;;;;;;5054430;28;20045;-58
2023/04/19 06:17:44;;;;;;;16.15;11.25;;;;;;;;;;5054021;28;20036;-58
2023/04/19 06:20:11;;;;;;;15.43;9.52;;;;;;;;;;5053999;28;20025;-58
2023/04/19 06:22:46;;;;;;;13.93;9.90;;;;;;;;;;5053980;28;20104;-58
2023/04/19 06:25:12;;;;;;;11.75;9.40;;;;;;;;;;5053946;28;20095;-58
2023/04/19 06:27:38;;;;;;;14.05;11.75;;;;;;;;;;5053959;28;20041;-58
2023/04/19 06:30:04;;;;;;;15.23;10.63;;;;;;;;;;5053783;28;20033;-58
2023/04/19 06:32:30;;;;;;;13.18;9.52;;;;;;;;;;5053464;28;20033;-59
2023/04/19 06:34:56;;;;;;;12.25;9.48;;;;;;;;;;5053815;28;20142;-59
2023/04/19 06:37:22;;;;;;;16.75;9.60;;;;;;;;;;5054031;28;20029;-58
2023/04/19 06:39:48;;;;;;;11.77;9.20;;;;;;;;;;5053632;28;20063;-58
2023/04/19 06:42:14;;;;;;;14.65;11.55;;;;;;;;;;5052011;28;20028;-58
2023/04/19 06:44:40;;;;;;;14.10;9.88;;;;;;;;;;5053729;28;20574;-58
2023/04/19 06:47:06;;;;;;;15.75;10.68;;;;;;;;;;5054065;28;20066;-58
2023/04/19 06:49:32;;;;;;;13.98;9.60;;;;;;;;;;5054106;28;20106;-58
2023/04/19 06:51:59;;;;;;;11.30;9.13;;;;;;;;;;5053863;28;20100;-58
2023/04/19 06:54:25;;;;;;;11.75;9.40;;;;;;;;;;5053578;28;20025;-58
2023/04/19 06:56:51;;;;;;;11.98;9.73;;;;;;;;;;5053649;28;20032;-57
2023/04/19 06:59:20;;;;;;;18.00;9.98;;;;;;;;;;5053097;28;20467;-57
2023/04/19 07:01:47;;;;;;;13.18;10.13;;;;;;;;;;5053731;28;20074;-58
2023/04/19 07:04:13;;;;;;;11.70;9.93;;;;;;;;;;5053376;28;20021;-58
2023/04/19 07:06:39;;;;;;;14.05;10.00;;;;;;;;;;5054079;28;20032;-57
2023/04/19 07:09:06;;;;;;;15.50;10.73;;;;;;;;;;5053473;28;20463;-57
2023/04/19 07:11:32;;;;;;;12.27;9.65;;;;;;;;;;5053929;28;20458;-57
2023/04/19 07:13:59;;;;;;;11.70;9.43;;;;;;;;;;5053880;28;20052;-57
2023/04/19 07:16:25;;;;;;;13.40;10.02;;;;;;;;;;5053869;28;20028;-57
2023/04/19 07:18:52;;;;;;;14.68;8.68;;;;;;;;;;5053272;28;20040;-57
2023/04/19 07:21:18;;;;;;;12.70;8.70;;;;;;;;;;5053329;28;20108;-57
2023/04/19 07:23:44;;;;;;;12.05;9.13;;;;;;;;;;5053776;28;20485;-57
2023/04/19 07:26:10;;;;;;;12.02;9.38;;;;;;;;;;5053487;28;20458;-57
2023/04/19 07:28:36;;;;;;;10.23;8.60;;;;;;;;;;5053075;28;20090;-56
2023/04/19 07:31:02;;;;;;;12.35;9.45;;;;;;;;;;5053196;28;20506;-57
2023/04/19 07:33:28;;;;;;;9.75;8.60;;;;;;;;;;5053814;28;20048;-57
2023/04/19 07:35:55;;;;;;;16.98;9.73;;;;;;;;;;5053551;28;20103;-57
2023/04/19 07:38:21;;;;;;;13.63;8.55;;;;;;;;;;5053664;28;20041;-57
2023/04/19 07:40:47;;;;;;;12.80;10.27;;;;;;;;;;5054022;28;20071;-57
2023/04/19 07:43:13;;;;;;;10.55;8.75;;;;;;;;;;5054437;28;20484;-57
2023/04/19 07:45:39;;;;;;;13.48;9.25;;;;;;;;;;5057586;28;20025;-57
2023/04/19 07:48:05;;;;;;;11.68;9.82;;;;;;;;;;5057184;28;20029;-58
2023/04/19 07:50:31;;;;;;;11.35;9.70;;;;;;;;;;5057068;28;20040;-58
2023/04/19 07:52:57;;;;;;;9.73;7.90;;;;;;;;;;5057302;28;20028;-58
2023/04/19 07:55:23;;;;;;;11.73;10.02;;;;;;;;;;5056703;28;20470;-57
2023/04/19 07:57:49;;;;;;;10.55;9.25;;;;;;;;;;5057180;28;20028;-57
2023/04/19 08:00:16;;;;;;;13.95;9.38;;;;;;;;;;5057012;28;20096;-57
2023/04/19 08:02:44;;;;;;;12.77;9.23;;;;;;;;;;5056925;28;20033;-58
2023/04/19 08:05:11;;;;;;;10.57;9.25;;;;;;;;;;5056546;28;20033;-58
2023/04/19 08:07:37;;;;;;;10.57;8.65;;;;;;;;;;5056646;28;20032;-58
2023/04/19 08:10:04;;;;;;;12.90;9.52;;;;;;;;;;5056560;28;20032;-59
2023/04/19 08:12:30;;;;;;;13.07;10.23;;;;;;;;;;5057039;28;20463;-59
2023/04/19 08:14:56;;;;;;;12.82;9.57;;;;;;;;;;5056141;28;20047;-58
2023/04/19 08:17:23;;;;;;;10.52;9.15;;;;;;;;;;5055912;28;20033;-58
2023/04/19 08:19:49;;;;;;;9.65;8.48;;;;;;;;;;5056259;28;20029;-57
2023/04/19 08:22:16;;;;;;;12.88;8.63;;;;;;;;;;5056233;28;20108;-57
2023/04/19 08:24:42;;;;;;;8.63;6.85;;;;;;;;;;5056808;28;20025;-58
2023/04/19 08:27:08;;;;;;;10.57;7.95;;;;;;;;;;5056175;28;20025;-59
2023/04/19 08:29:34;;;;;;;14.07;8.57;;;;;;;;;;5056224;28;20025;-58
2023/04/19 08:32:00;;;;;;;12.40;9.45;;;;;;;;;;5056016;28;20074;-58
2023/04/19 08:34:27;;;;;;;13.40;8.43;;;;;;;;;;5055966;28;20029;-58
2023/04/19 08:36:53;;;;;;;10.38;8.45;;;;;;;;;;5056284;28;20028;-57
2023/04/19 08:39:19;;;;;;;10.30;7.85;;;;;;;;;;5055857;28;20033;-58
2023/04/19 08:41:45;;;;;;;8.82;6.82;;;;;;;;;;5055341;28;20036;-59
2023/04/19 08:44:11;;;;;;;12.90;7.70;;;;;;;;;;5056095;28;20025;-58
2023/04/19 08:46:37;;;;;;;10.20;7.55;;;;;;;;;;5056305;28;20032;-58
2023/04/19 08:49:07;;;;;;;10.57;6.47;;;;;;;;;;5055738;28;20033;-59
2023/04/19 08:51:34;;;;;;;8.57;6.53;;;;;;;;;;5055444;28;20033;-58
2023/04/19 08:54:01;;;;;;;10.18;6.47;;;;;;;;;;5055373;28;20064;-59
2023/04/19 08:56:27;;;;;;;6.72;5.25;;;;;;;;;;5055128;28;20061;-59
2023/04/19 08:58:53;;;;;;;8.52;6.45;;;;;;;;;;5055666;28;20410;-59
2023/04/19 09:01:20;;;;;;;8.45;6.25;;;;;;;;;;5055725;28;20033;-58
2023/04/19 09:03:46;;;;;;;8.40;6.65;;;;;;;;;;5055398;28;20021;-59
2023/04/19 09:06:12;;;;;;;8.25;7.10;;;;;;;;;;5055729;28;20086;-59
2023/04/19 09:08:39;;;;;;;10.85;6.97;;;;;;;;;;5055312;28;20421;-57
2023/04/19 09:11:05;;;;;;;11.68;6.60;;;;;;;;;;5055343;28;20021;-59
2023/04/19 09:13:31;;;;;;;8.48;6.72;;;;;;;;;;5055355;28;20044;-59
2023/04/19 09:16:00;;;;;;;6.55;5.65;;;;;;;;;;5055150;28;20045;-56
2023/04/19 09:18:26;;;;;;;7.25;5.65;;;;;;;;;;5055046;28;20036;-56
2023/04/19 09:20:56;;;;;;;7.45;5.95;;;;;;;;;;5055123;28;20036;-57
2023/04/19 09:23:24;;;;;;;10.00;6.20;;;;;;;;;;5055082;28;20033;-56
2023/04/19 09:25:52;;;;;;;7.05;6.35;;;;;;;;;;5055514;28;20087;-57
2023/04/19 09:28:18;;;;;;;10.90;7.07;;;;;;;;;;5054833;28;20071;-57
2023/04/19 09:30:45;;;;;;;10.90;6.57;;;;;;;;;;5054518;28;20491;-57
2023/04/19 09:33:11;;;;;;;7.10;6.07;;;;;;;;;;5054870;28;20036;-57
2023/04/19 09:35:41;;;;;;;10.90;6.70;;;;;;;;;;5054541;28;20029;-57
2023/04/19 09:38:07;;;;;;;7.43;5.47;;;;;;;;;;5055238;28;20025;-57
2023/04/19 09:40:33;;;;;;;9.70;6.70;;;;;;;;;;5055248;28;20044;-56
2023/04/19 09:42:59;;;;;;;6.78;5.20;;;;;;;;;;5054587;28;20060;-56
2023/04/19 09:45:27;;;;;;;8.23;6.40;;;;;;;;;;5054994;28;20036;-56
2023/04/19 09:48:03;;;;;;;8.45;6.45;;;;;;;;;;5054587;28;20040;-56
2023/04/19 09:50:29;;;;;;;10.82;7.80;;;;;;;;;;5054936;28;20029;-55
2023/04/19 09:52:55;;;;;;;10.15;6.93;;;;;;;;;;5054392;28;20021;-57
2023/04/19 09:55:22;;;;;;;9.65;7.68;;;;;;;;;;5055080;28;20032;-57
2023/04/19 09:57:48;;;;;;;13.23;7.25;;;;;;;;;;5054221;28;20101;-59
2023/04/19 10:00:14;;;;;;;8.98;7.10;;;;;;;;;;5054329;28;20061;-57
2023/04/19 10:02:41;;;;;;;8.70;7.43;;;;;;;;;;5055048;28;20456;-58
2023/04/19 10:05:11;;;;;;;9.82;7.38;;;;;;;;;;5054758;28;20359;-59
2023/04/19 10:07:37;;;;;;;13.88;7.15;;;;;;;;;;5054140;28;20111;-59
2023/04/19 10:10:04;;;;;;;12.55;8.23;;;;;;;;;;5054997;28;20025;-57
2023/04/19 10:12:31;;;;;;;10.00;7.60;;;;;;;;;;5053914;28;20371;-57
2023/04/19 10:14:57;;;;;;;7.43;6.22;;;;;;;;;;5054451;28;20045;-57
2023/04/19 10:17:23;;;;;;;9.45;7.25;;;;;;;;;;5053584;28;20056;-57
2023/04/19 10:20:05;;;;;;;10.20;8.48;;;;;;;;;;5054300;28;20076;-58
2023/04/19 10:22:32;;;;;;;6.80;6.10;;;;;;;;;;5053968;28;20033;-57
2023/04/19 10:25:12;;;;;;;7.90;5.97;;;;;;;;;;5053877;28;20028;-58
2023/04/19 10:27:39;;;;;;;8.80;6.45;;;;;;;;;;5054243;28;20032;-59
2023/04/19 10:30:11;;;;;;;8.77;6.30;;;;;;;;;;5053950;28;20061;-58
2023/04/19 10:32:41;;;;;;;8.38;6.05;;;;;;;;;;5053944;28;20522;-59
2023/04/19 10:35:31;;;;;;;8.73;6.20;;;;;;;;;;5053848;28;20100;-59
2023/04/19 10:38:11;;;;;;;9.98;5.70;;;;;;;;;;5053630;28;20033;-59
2023/04/19 10:40:55;;;;;;;8.05;5.85;;;;;;;;;;5053722;28;20032;-59
2023/04/19 10:43:24;;;;;;;5.90;5.20;;;;;;;;;;5053566;28;20077;-58
2023/04/19 10:45:50;;;;;;;8.70;6.38;;;;;;;;;;5054089;28;20076;-58
2023/04/19 10:48:34;;;;;;;9.13;6.38;;;;;;;;;;5052903;28;20033;-58
2023/04/19 10:51:15;;;;;;;10.27;7.60;;;;;;;;;;5054251;28;20017;-58
2023/04/19 10:53:50;;;;;;;10.18;6.68;;;;;;;;;;5052273;28;20040;-58
2023/04/19 10:56:17;;;;;;;7.78;6.05;;;;;;;;;;5054266;28;20428;-57
2023/04/19 10:59:09;;;;;;;8.70;6.53;;;;;;;;;;5053523;28;20094;-58
2023/04/19 11:01:41;;;;;;;8.43;5.90;;;;;;;;;;5054345;28;20025;-58
2023/04/19 11:04:14;;;;;;;6.78;5.68;;;;;;;;;;5053555;28;20051;-58
2023/04/19 11:06:53;;;;;;;7.45;5.68;;;;;;;;;;5053922;28;20049;-58
2023/04/19 11:09:23;;;;;;;8.88;6.03;;;;;;;;;;5053986;28;20106;-58
2023/04/19 11:11:49;;;;;;;9.82;6.15;;;;;;;;;;5053846;28;20025;-58
2023/04/19 11:14:15;;;;;;;9.75;7.57;;;;;;;;;;5053938;28;20049;-58
2023/04/19 11:16:41;;;;;;;13.32;7.93;;;;;;;;;;5053877;28;20080;-58
2023/04/19 11:19:07;;;;;;;7.38;5.68;;;;;;;;;;5056788;28;20061;-58
2023/04/19 11:21:38;;;;;;;9.02;6.60;;;;;;;;;;5057308;28;20032;-58
2023/04/19 11:24:10;;;;;;;11.15;7.35;;;;;;;;;;5057977;28;20501;-58
2023/04/19 11:26:36;;;;;;;7.63;6.45;;;;;;;;;;5057934;28;20070;-58
2023/04/19 11:29:03;;;;;;;8.23;6.13;;;;;;;;;;5057265;28;20405;-58
2023/04/19 11:31:32;;;;;;;9.43;7.00;;;;;;;;;;5057782;28;20132;-58
2023/04/19 11:34:01;;;;;;;9.73;6.72;;;;;;;;;;5057655;28;20032;-58
2023/04/19 11:36:27;;;;;;;9.57;7.03;;;;;;;;;;5057489;28;20020;-58
2023/04/19 11:38:53;;;;;;;9.50;7.25;;;;;;;;;;5056912;28;20025;-58
2023/04/19 11:41:19;;;;;;;14.15;7.45;;;;;;;;;;5057067;28;20033;-58
2023/04/19 11:43:45;;;;;;;9.68;6.03;;;;;;;;;;5056818;28;20107;-58
2023/04/19 11:46:12;;;;;;;8.55;6.22;;;;;;;;;;5055423;28;20029;-59
2023/04/19 11:48:39;;;;;;;10.95;7.80;;;;;;;;;;5056955;28;20463;-59
2023/04/19 11:51:05;;;;;;;9.30;7.60;;;;;;;;;;5056928;28;20052;-59
2023/04/19 11:53:32;;;;;;;8.65;7.00;;;;;;;;;;5056837;28;20064;-59
2023/04/19 11:56:05;;;;;;;8.63;7.38;;;;;;;;;;5056932;28;20068;-59
2023/04/19 11:58:38;;;;;;;8.40;7.10;;;;;;;;;;5056628;28;20025;-58
2023/04/19 12:01:08;;;;;;;12.90;7.90;;;;;;;;;;5056683;28;20074;-58
2023/04/19 12:03:35;;;;;;;7.30;6.10;;;;;;;;;;5056745;28;20017;-59
2023/04/19 12:06:02;;;;;;;11.93;9.82;;;;;;;;;;5056642;28;20331;-59
2023/04/19 12:08:35;;;;;;;11.68;8.20;;;;;;;;;;5056401;28;20025;-59
2023/04/19 12:11:02;;;;;;;13.90;8.90;;;;;;;;;;5056378;28;20065;-59
2023/04/19 12:13:30;;;;;;;12.40;9.73;;;;;;;;;;5056395;28;20021;-59
2023/04/19 12:15:56;;;;;;;10.82;8.57;;;;;;;;;;5056854;28;20053;-59
2023/04/19 12:18:22;;;;;;;13.63;9.65;;;;;;;;;;5056208;28;20033;-59
2023/04/19 12:20:48;;;;;;;11.43;8.52;;;;;;;;;;5056594;28;20068;-59
2023/04/19 12:23:15;;;;;;;11.25;7.75;;;;;;;;;;5056298;28;20033;-59
2023/04/19 12:25:42;;;;;;;12.27;9.95;;;;;;;;;;5056593;28;20036;-58
2023/04/19 12:28:08;;;;;;;14.50;10.88;;;;;;;;;;5056432;28;20040;-58
2023/04/19 12:30:37;;;;;;;13.02;9.35;;;;;;;;;;5054798;28;20029;-59
2023/04/19 12:33:03;;;;;;;16.23;9.98;;;;;;;;;;5056342;28;20029;-59
2023/04/19 12:35:29;;;;;;;21.52;12.30;;;;;;;;;;5056127;28;20022;-60
2023/04/19 12:37:55;;;;;;;14.63;11.85;;;;;;;;;;5055515;28;20033;-59
2023/04/19 12:40:21;;;;;;;13.13;10.40;;;;;;;;;;5055904;28;20041;-59
2023/04/19 12:42:48;;;;;;;17.83;12.23;;;;;;;;;;5055795;28;20057;-60
2023/04/19 12:45:14;;;;;;;13.95;10.52;;;;;;;;;;5056104;28;20036;-59
2023/04/19 12:47:40;;;;;;;14.32;10.15;;;;;;;;;;5055790;28;20052;-59
2023/04/19 12:50:07;;;;;;;14.55;11.30;;;;;;;;;;5055743;28;20029;-60
2023/04/19 12:52:33;;;;;;;13.77;12.35;;;;;;;;;;5056075;28;20021;-59
2023/04/19 12:54:59;;;;;;;12.90;10.40;;;;;;;;;;5055661;28;20371;-59
2023/04/19 12:57:25;;;;;;;17.42;12.88;;;;;;;;;;5056038;28;20037;-59
2023/04/19 12:59:51;;;;;;;14.55;10.52;;;;;;;;;;5055669;28;20029;-59
2023/04/19 13:02:17;;;;;;;13.07;9.85;;;;;;;;;;5055684;28;20022;-59
2023/04/19 13:04:43;;;;;;;15.65;12.27;;;;;;;;;;5055499;28;20379;-60
2023/04/19 13:07:09;;;;;;;12.75;10.13;;;;;;;;;;5055526;28;20065;-60
2023/04/19 13:09:35;;;;;;;13.55;10.15;;;;;;;;;;5055581;28;20029;-60
2023/04/19 13:12:01;;;;;;;10.85;9.55;;;;;;;;;;5056010;28;20127;-60
2023/04/19 13:14:28;;;;;;;13.13;10.38;;;;;;;;;;5054992;28;20117;-60
2023/04/19 13:16:54;;;;;;;11.45;10.07;;;;;;;;;;5055208;28;20120;-60
2023/04/19 13:19:20;;;;;;;15.90;11.45;;;;;;;;;;5055423;28;20371;-60
2023/04/19 13:21:46;;;;;;;14.73;10.82;;;;;;;;;;5055049;28;20043;-60
2023/04/19 13:24:12;;;;;;;13.75;10.35;;;;;;;;;;5055596;28;20068;-60
2023/04/19 13:26:38;;;;;;;13.25;10.75;;;;;;;;;;5055520;28;20090;-59
2023/04/19 13:29:07;;;;;;;15.70;12.45;;;;;;;;;;5054694;28;20037;-59
2023/04/19 13:31:33;;;;;;;14.40;10.95;;;;;;;;;;5054943;28;20025;-59
2023/04/19 13:33:59;;;;;;;17.42;11.45;;;;;;;;;;5054920;28;20348;-59
2023/04/19 13:36:26;;;;;;;13.30;9.90;;;;;;;;;;5055635;28;20029;-59
2023/04/19 13:38:52;;;;;;;14.82;9.43;;;;;;;;;;5055150;28;20029;-59
2023/04/19 13:41:18;;;;;;;15.10;11.02;;;;;;;;;;5054406;28;20033;-59
2023/04/19 13:43:44;;;;;;;12.98;10.05;;;;;;;;;;5054597;28;20052;-59
2023/04/19 13:46:10;;;;;;;14.10;10.50;;;;;;;;;;5054779;28;20029;-58
2023/04/19 13:48:36;;;;;;;11.05;8.20;;;;;;;;;;5055086;28;20029;-60
2023/04/19 13:51:02;;;;;;;16.67;10.18;;;;;;;;;;5054500;28;20063;-60
2023/04/19 13:53:28;;;;;;;11.23;9.00;;;;;;;;;;5054911;28;20444;-60
2023/04/19 13:55:55;;;;;;;20.73;10.75;;;;;;;;;;5054659;28;20107;-60
2023/04/19 13:58:21;;;;;;;11.43;9.38;;;;;;;;;;5054241;28;20041;-59
2023/04/19 14:00:47;;;;;;;12.73;9.40;;;;;;;;;;5054207;28;20463;-59
2023/04/19 14:03:13;;;;;;;12.13;8.35;;;;;;;;;;5053981;28;20493;-59
2023/04/19 14:05:39;;;;;;;13.15;9.45;;;;;;;;;;5054480;28;20028;-59
2023/04/19 14:08:05;;;;;;;12.85;9.68;;;;;;;;;;5054712;28;20120;-59
2023/04/19 14:10:31;;;;;;;13.95;10.23;;;;;;;;;;5053991;28;20483;-60
2023/04/19 14:12:57;;;;;;;12.23;9.45;;;;;;;;;;5054391;28;20029;-59
2023/04/19 14:15:24;;;;;;;17.48;9.32;;;;;;;;;;5054049;28;20055;-58
2023/04/19 14:17:51;;;;;;;12.85;8.80;;;;;;;;;;5053519;28;20033;-58
2023/04/19 14:20:19;;;;;;;13.18;9.88;;;;;;;;;;5053717;28;20048;-60
2023/04/19 14:22:45;;;;;;;12.32;9.82;;;;;;;;;;5054378;28;20021;-60
2023/04/19 14:25:14;;;;;;;13.50;10.60;;;;;;;;;;5054208;28;20032;-59
2023/04/19 14:27:40;;;;;;;14.07;8.52;;;;;;;;;;5053994;28;20056;-59